Time;durP1;ratioP1;P1;durP2;ratioP2;P2;SDS_P1;SDS_P2;PMS_P1;PMS_P2;Temp;Humidity;BMP_temperature;BMP_pressure;BME280_temperature;BME280_humidity;BME280_pressure;Samples;Min_cycle;Max_cycle;Signal;HPM_P1;HPM_P2
2020/12/07 00:00:19;;;;;;;6.03;1.90;;;26.90;28.90;;;;;;5074404;28;20199;-81
2020/12/07 00:02:46;;;;;;;6.67;2.30;;;26.80;29.30;;;;;;5070101;28;20521;-78
2020/12/07 00:05:14;;;;;;;6.73;1.97;;;27.00;29.30;;;;;;5069696;28;20184;-81
2020/12/07 00:07:41;;;;;;;7.60;2.00;;;27.20;29.70;;;;;;5071970;28;20229;-79
2020/12/07 00:10:09;;;;;;;7.10;1.63;;;27.30;29.80;;;;;;5066726;28;20215;-78
2020/12/07 00:12:36;;;;;;;13.57;2.83;;;27.50;29.30;;;;;;5071142;28;20175;-79
2020/12/07 00:15:06;;;;;;;9.63;2.00;;;27.60;29.50;;;;;;5074151;28;20179;-79
2020/12/07 00:17:33;;;;;;;10.23;2.70;;;27.80;29.20;;;;;;5071328;28;20260;-78
2020/12/07 00:20:02;;;;;;;9.33;2.03;;;27.70;29.10;;;;;;5072711;28;20548;-80
2020/12/07 00:22:31;;;;;;;5.60;1.73;;;27.80;28.90;;;;;;5071573;28;20179;-77
2020/12/07 00:24:59;;;;;;;7.57;1.70;;;27.70;28.90;;;;;;5073772;28;20234;-79
2020/12/07 00:27:33;;;;;;;9.17;2.23;;;27.70;29.00;;;;;;5070203;28;20320;-79
2020/12/07 00:30:03;;;;;;;5.10;1.57;;;27.80;28.70;;;;;;5069946;28;20690;-79
2020/12/07 00:32:34;;;;;;;8.33;2.30;;;27.80;28.90;;;;;;5072947;28;20292;-79
2020/12/07 00:35:01;;;;;;;8.33;1.93;;;27.90;28.60;;;;;;5063230;28;20210;-78
2020/12/07 00:37:29;;;;;;;6.90;2.07;;;27.80;28.50;;;;;;5069125;28;20657;-76
2020/12/07 00:39:56;;;;;;;11.00;2.17;;;28.10;28.90;;;;;;5067731;28;20229;-77
2020/12/07 00:42:23;;;;;;;7.27;2.17;;;28.40;28.60;;;;;;5068766;28;20199;-82
2020/12/07 00:44:51;;;;;;;5.30;1.67;;;28.50;28.30;;;;;;5073245;28;20241;-79
2020/12/07 00:47:18;;;;;;;9.60;1.97;;;28.60;28.50;;;;;;5074464;28;20179;-79
2020/12/07 00:49:45;;;;;;;8.17;1.90;;;28.70;28.30;;;;;;5069139;28;20215;-78
2020/12/07 00:52:14;;;;;;;7.80;1.50;;;28.60;28.20;;;;;;5064934;28;20542;-80
2020/12/07 00:54:41;;;;;;;6.30;1.77;;;28.40;27.50;;;;;;5068963;28;20211;-78
2020/12/07 00:57:09;;;;;;;7.97;1.50;;;28.40;27.40;;;;;;5067757;28;20206;-77
2020/12/07 00:59:36;;;;;;;10.47;1.83;;;28.50;27.90;;;;;;5068084;28;20183;-77
2020/12/07 01:02:03;;;;;;;13.63;2.87;;;28.70;28.40;;;;;;5053754;28;20547;-79
2020/12/07 01:04:31;;;;;;;12.87;2.80;;;28.90;28.40;;;;;;5053624;28;20184;-77
2020/12/07 01:06:58;;;;;;;6.77;1.80;;;28.90;27.80;;;;;;5053414;28;20183;-79
2020/12/07 01:09:26;;;;;;;7.57;2.03;;;29.00;27.60;;;;;;5067098;28;20202;-77
2020/12/07 01:12:02;;;;;;;9.00;2.27;;;28.90;27.80;;;;;;5066572;28;20191;-78
2020/12/07 01:14:29;;;;;;;8.93;1.57;;;28.90;27.60;;;;;;5071356;28;20220;-79
2020/12/07 01:16:58;;;;;;;11.30;1.93;;;28.70;27.10;;;;;;5070286;28;20191;-77
2020/12/07 01:19:26;;;;;;;8.27;1.83;;;29.00;27.50;;;;;;5069260;28;20180;-77
2020/12/07 01:21:54;;;;;;;7.93;1.63;;;28.90;26.90;;;;;;5060542;28;20199;-79
2020/12/07 01:24:21;;;;;;;8.27;1.87;;;29.10;27.00;;;;;;5066976;28;20223;-77
2020/12/07 01:26:49;;;;;;;9.80;1.80;;;29.00;27.60;;;;;;5066179;28;20201;-78
2020/12/07 01:29:16;;;;;;;7.33;1.67;;;29.00;27.30;;;;;;5069998;28;20213;-81
2020/12/07 01:31:43;;;;;;;6.87;1.43;;;29.10;27.50;;;;;;5071960;28;20657;-82
2020/12/07 01:34:10;;;;;;;8.50;1.43;;;29.30;27.30;;;;;;5071264;28;20241;-78
2020/12/07 01:36:38;;;;;;;6.37;1.50;;;29.50;26.90;;;;;;5065235;28;20195;-81
2020/12/07 01:39:05;;;;;;;5.37;1.30;;;29.40;26.60;;;;;;5074068;28;20187;-82
2020/12/07 01:41:32;;;;;;;7.00;1.70;;;29.20;27.20;;;;;;5070589;28;20581;-78
2020/12/07 01:44:00;;;;;;;6.63;1.73;;;29.20;27.50;;;;;;5073679;28;20186;-81
2020/12/07 01:46:27;;;;;;;10.10;1.70;;;29.10;26.70;;;;;;5071276;28;20207;-79
2020/12/07 01:48:55;;;;;;;8.13;1.43;;;29.50;26.50;;;;;;5074163;28;20245;-78
2020/12/07 01:51:24;;;;;;;10.70;1.33;;;29.40;26.60;;;;;;5067198;28;20223;-80
2020/12/07 01:53:52;;;;;;;7.43;1.40;;;29.70;26.30;;;;;;5065990;28;20186;-76
2020/12/07 01:56:28;;;;;;;10.77;1.90;;;29.50;26.40;;;;;;5062005;28;20187;-80
2020/12/07 01:58:58;;;;;;;6.10;1.40;;;29.50;26.50;;;;;;5070129;28;20217;-80
2020/12/07 02:01:27;;;;;;;8.50;1.47;;;29.40;26.50;;;;;;5078657;28;20179;-81
2020/12/07 02:03:55;;;;;;;11.63;1.93;;;29.80;26.70;;;;;;5076853;28;20186;-80
2020/12/07 02:06:22;;;;;;;9.03;1.50;;;29.90;26.60;;;;;;5077259;28;20312;-78
2020/12/07 02:08:53;;;;;;;7.90;1.40;;;30.10;25.90;;;;;;5072600;28;20187;-81
2020/12/07 02:11:20;;;;;;;3.47;1.03;;;30.20;26.30;;;;;;5056342;28;20269;-79
2020/12/07 02:13:48;;;;;;;6.90;1.90;;;30.20;26.40;;;;;;5055607;28;20534;-76
2020/12/07 02:16:16;;;;;;;7.13;1.50;;;30.10;26.00;;;;;;5060566;28;20192;-81
2020/12/07 02:18:43;;;;;;;8.37;1.43;;;30.30;26.70;;;;;;5076429;28;20256;-79
2020/12/07 02:21:10;;;;;;;6.70;1.50;;;30.30;26.80;;;;;;5076708;28;20191;-75
2020/12/07 02:23:38;;;;;;;6.30;1.50;;;30.20;26.70;;;;;;5076367;28;20590;-78
2020/12/07 02:26:05;;;;;;;8.50;1.40;;;30.40;26.10;;;;;;5070827;28;20188;-78
2020/12/07 02:28:32;;;;;;;6.37;1.40;;;30.10;25.90;;;;;;5076715;28;20262;-78
2020/12/07 02:31:00;;;;;;;6.17;1.40;;;29.80;26.20;;;;;;5076391;28;20249;-78
2020/12/07 02:33:27;;;;;;;11.47;1.43;;;30.50;26.40;;;;;;5075739;28;20279;-78
2020/12/07 02:35:54;;;;;;;7.13;1.50;;;30.80;26.20;;;;;;5075235;28;20176;-77
2020/12/07 02:38:22;;;;;;;10.98;1.95;;;30.80;26.20;;;;;;5072825;28;20175;-77
2020/12/07 02:40:49;;;;;;;4.57;1.70;;;30.80;25.80;;;;;;5066365;28;20598;-80
2020/12/07 02:43:16;;;;;;;7.55;1.42;;;30.50;25.60;;;;;;5068974;28;20180;-80
2020/12/07 02:45:43;;;;;;;8.03;1.27;;;30.60;25.70;;;;;;5075903;28;20186;-78
2020/12/07 02:48:11;;;;;;;6.38;1.95;;;31.10;26.60;;;;;;5069325;28;20238;-79
2020/12/07 02:50:38;;;;;;;5.37;1.60;;;31.40;25.60;;;;;;5073757;28;20223;-76
2020/12/07 02:53:05;;;;;;;6.03;1.27;;;31.20;25.20;;;;;;5071796;28;20183;-81
2020/12/07 02:55:33;;;;;;;8.40;1.42;;;31.10;24.90;;;;;;5068353;28;20657;-80
2020/12/07 02:58:00;;;;;;;4.22;1.38;;;31.30;25.00;;;;;;5065737;28;20529;-79
2020/12/07 03:00:27;;;;;;;5.75;1.23;;;31.30;24.90;;;;;;5075195;28;20182;-78
2020/12/07 03:02:55;;;;;;;4.00;1.20;;;31.20;24.90;;;;;;5077308;28;20639;-79
2020/12/07 03:05:22;;;;;;;7.83;1.40;;;30.90;24.60;;;;;;5077905;28;20246;-83
2020/12/07 03:07:52;;;;;;;5.00;1.40;;;30.40;25.20;;;;;;5077227;28;20180;-78
2020/12/07 03:10:20;;;;;;;7.53;2.00;;;31.00;25.60;;;;;;5077634;28;20203;-79
2020/12/07 03:12:47;;;;;;;4.18;0.95;;;30.90;24.10;;;;;;5076873;28;20188;-79
2020/12/07 03:15:14;;;;;;;5.35;1.15;;;31.00;24.80;;;;;;5076554;28;20163;-81
2020/12/07 03:17:41;;;;;;;7.75;1.20;;;30.90;24.40;;;;;;5074917;28;20225;-77
2020/12/07 03:20:09;;;;;;;3.08;1.13;;;31.00;24.80;;;;;;5075262;28;20201;-80
2020/12/07 03:22:36;;;;;;;4.07;1.37;;;31.10;24.60;;;;;;5076327;28;20168;-78
2020/12/07 03:25:04;;;;;;;6.72;1.52;;;31.10;24.40;;;;;;5076921;28;20226;-78
2020/12/07 03:27:31;;;;;;;6.10;1.30;;;31.30;24.50;;;;;;5077191;28;20663;-79
2020/12/07 03:29:58;;;;;;;9.05;1.40;;;31.20;24.40;;;;;;5074326;28;20248;-78
2020/12/07 03:32:26;;;;;;;4.22;1.20;;;31.80;23.90;;;;;;5075391;28;20163;-81
2020/12/07 03:34:57;;;;;;;4.93;1.13;;;32.00;24.40;;;;;;5076644;28;20268;-78
2020/12/07 03:37:24;;;;;;;8.25;1.70;;;31.70;24.60;;;;;;5075197;28;20254;-79
2020/12/07 03:39:52;;;;;;;5.22;1.20;;;32.50;24.60;;;;;;5075747;28;20207;-77
2020/12/07 03:42:19;;;;;;;7.78;1.20;;;32.60;24.20;;;;;;5076136;28;20171;-83
2020/12/07 03:44:46;;;;;;;6.40;1.17;;;32.10;23.20;;;;;;5074945;28;20221;-78
2020/12/07 03:47:14;;;;;;;3.63;1.08;;;31.90;23.40;;;;;;5074514;28;20656;-83
2020/12/07 03:49:41;;;;;;;4.70;0.93;;;31.80;23.10;;;;;;5072668;28;20218;-81
2020/12/07 03:52:08;;;;;;;2.58;1.58;;;31.90;23.30;;;;;;5074786;28;20180;-78
2020/12/07 03:54:35;;;;;;;8.43;1.38;;;31.80;23.40;;;;;;5074690;28;20650;-78
2020/12/07 03:57:03;;;;;;;6.80;0.93;;;31.90;23.20;;;;;;5073884;28;20179;-80
2020/12/07 03:59:30;;;;;;;5.93;1.40;;;32.20;23.80;;;;;;5073244;28;20178;-78
2020/12/07 04:01:58;;;;;;;4.88;1.05;;;32.10;23.00;;;;;;5073908;28;20179;-79
2020/12/07 04:04:31;;;;;;;3.25;1.23;;;32.00;23.90;;;;;;5073354;28;20163;-77
2020/12/07 04:06:58;;;;;;;3.53;1.33;;;32.10;24.10;;;;;;5073447;28;20261;-84
2020/12/07 04:09:26;;;;;;;5.70;0.98;;;32.10;23.70;;;;;;5076187;28;20250;-80
2020/12/07 04:11:53;;;;;;;5.38;1.20;;;32.10;23.70;;;;;;5074700;28;20567;-76
2020/12/07 04:14:20;;;;;;;4.60;1.60;;;32.40;23.80;;;;;;5075359;28;20171;-82
2020/12/07 04:16:48;;;;;;;2.80;0.90;;;32.30;23.60;;;;;;5074845;28;20254;-84
2020/12/07 04:19:15;;;;;;;3.10;0.80;;;32.20;23.50;;;;;;5074791;28;20176;-77
2020/12/07 04:21:42;;;;;;;3.47;0.98;;;31.90;23.50;;;;;;5074434;28;20163;-78
2020/12/07 04:24:10;;;;;;;3.47;1.17;;;32.30;23.30;;;;;;5073821;28;20274;-78
2020/12/07 04:26:37;;;;;;;5.45;1.40;;;32.50;23.10;;;;;;5074727;28;20170;-78
2020/12/07 04:29:04;;;;;;;8.02;1.17;;;32.50;23.80;;;;;;5074901;28;20171;-81
2020/12/07 04:31:32;;;;;;;4.32;1.25;;;32.50;23.30;;;;;;5074478;28;20203;-78
2020/12/07 04:33:59;;;;;;;11.75;1.42;;;32.70;23.60;;;;;;5073574;28;20179;-79
2020/12/07 04:36:27;;;;;;;3.50;1.30;;;33.30;23.50;;;;;;5074926;28;20225;-81
2020/12/07 04:38:54;;;;;;;5.82;1.20;;;33.10;23.70;;;;;;5074301;28;20179;-82
2020/12/07 04:41:21;;;;;;;2.67;0.95;;;33.10;23.40;;;;;;5063502;28;20658;-78
2020/12/07 04:43:50;;;;;;;5.43;1.30;;;33.40;23.60;;;;;;5070237;28;20181;-77
2020/12/07 04:46:18;;;;;;;7.55;1.20;;;33.40;23.20;;;;;;5070229;28;20180;-82
2020/12/07 04:48:46;;;;;;;3.22;1.25;;;33.50;23.20;;;;;;5054895;28;20176;-76
2020/12/07 04:51:14;;;;;;;4.55;1.30;;;33.50;23.20;;;;;;5054371;28;20773;-76
2020/12/07 04:53:42;;;;;;;7.80;1.42;;;33.60;23.30;;;;;;5053687;28;20645;-78
2020/12/07 04:56:09;;;;;;;8.77;1.13;;;34.10;23.40;;;;;;5061590;28;20275;-82
2020/12/07 04:58:37;;;;;;;6.28;1.30;;;33.20;23.00;;;;;;5057906;28;20697;-79
2020/12/07 05:01:04;;;;;;;5.32;1.40;;;33.00;23.40;;;;;;5071655;28;20263;-80
2020/12/07 05:03:31;;;;;;;10.02;1.55;;;33.00;23.50;;;;;;5073096;28;20254;-80
2020/12/07 05:06:01;;;;;;;10.40;1.88;;;33.20;24.30;;;;;;5073026;28;20171;-79
2020/12/07 05:08:28;;;;;;;9.40;1.25;;;33.90;23.30;;;;;;5073873;28;20282;-79
2020/12/07 05:11:01;;;;;;;5.90;1.10;;;33.40;23.10;;;;;;5073625;28;20242;-79
2020/12/07 05:13:37;;;;;;;8.45;1.15;;;33.30;23.30;;;;;;5073370;28;20232;-79
2020/12/07 05:16:04;;;;;;;4.65;1.10;;;33.40;22.70;;;;;;5071563;28;20645;-78
2020/12/07 05:18:37;;;;;;;5.97;1.25;;;33.80;22.70;;;;;;5073537;28;20182;-79
2020/12/07 05:21:05;;;;;;;5.75;1.30;;;33.70;22.90;;;;;;5073249;28;20534;-79
2020/12/07 05:23:37;;;;;;;4.55;1.23;;;33.70;23.10;;;;;;5072538;28;20565;-77
2020/12/07 05:26:07;;;;;;;5.28;1.13;;;33.80;22.50;;;;;;5070599;28;20190;-78
2020/12/07 05:28:45;;;;;;;3.75;0.90;;;33.50;22.70;;;;;;5064388;28;20187;-81
2020/12/07 05:31:23;;;;;;;5.72;1.30;;;33.90;22.90;;;;;;5054690;28;20219;-80
2020/12/07 05:33:51;;;;;;;6.18;0.98;;;33.60;22.70;;;;;;5058003;28;20673;-80
2020/12/07 05:36:19;;;;;;;9.00;1.10;;;34.20;22.80;;;;;;5055414;28;20635;-76
2020/12/07 05:38:47;;;;;;;4.65;1.13;;;34.10;22.70;;;;;;5052989;28;20168;-77
2020/12/07 05:41:16;;;;;;;6.45;1.25;;;34.40;22.50;;;;;;5067113;28;20179;-78
2020/12/07 05:43:45;;;;;;;4.38;1.08;;;34.30;22.30;;;;;;5072047;28;20179;-77
2020/12/07 05:46:14;;;;;;;6.53;1.05;;;34.10;22.60;;;;;;5077191;28;20186;-75
2020/12/07 05:48:45;;;;;;;3.88;1.00;;;34.20;22.70;;;;;;5079426;28;20719;-78
2020/12/07 05:51:13;;;;;;;4.18;1.13;;;34.20;22.40;;;;;;5077662;28;20269;-78
2020/12/07 05:53:41;;;;;;;8.80;1.23;;;34.20;22.60;;;;;;5072086;28;20175;-77
2020/12/07 05:56:10;;;;;;;7.22;1.30;;;33.70;22.70;;;;;;5070267;28;20191;-77
2020/12/07 05:58:40;;;;;;;2.65;1.10;;;33.50;22.70;;;;;;5067433;28;20191;-77
2020/12/07 06:01:11;;;;;;;3.58;1.13;;;33.10;23.30;;;;;;5072304;28;20591;-77
2020/12/07 06:03:42;;;;;;;5.65;1.63;;;33.90;23.30;;;;;;5090851;28;20174;-82
2020/12/07 06:06:10;;;;;;;6.13;1.08;;;34.30;22.40;;;;;;5088020;28;20175;-78
2020/12/07 06:08:40;;;;;;;5.22;1.10;;;33.80;22.70;;;;;;5075581;28;20182;-78
2020/12/07 06:11:12;;;;;;;4.65;1.08;;;33.80;23.20;;;;;;5092797;28;20216;-78
2020/12/07 06:13:40;;;;;;;5.05;1.20;;;33.80;23.00;;;;;;5061499;28;20180;-79
2020/12/07 06:16:08;;;;;;;5.82;1.30;;;34.00;23.10;;;;;;5072324;28;20282;-74
2020/12/07 06:18:41;;;;;;;7.10;1.38;;;34.30;23.40;;;;;;5070509;28;20254;-77
2020/12/07 06:21:18;;;;;;;4.60;1.10;;;33.80;23.20;;;;;;5066358;28;20172;-74
2020/12/07 06:23:49;;;;;;;4.53;1.10;;;34.00;23.00;;;;;;5068631;28;20207;-77
2020/12/07 06:26:20;;;;;;;4.82;1.23;;;34.00;22.80;;;;;;5072943;28;20187;-77
2020/12/07 06:28:48;;;;;;;4.10;1.20;;;33.60;23.20;;;;;;5065298;28;20254;-80
2020/12/07 06:31:21;;;;;;;9.35;1.33;;;33.30;23.40;;;;;;5066130;28;20214;-82
2020/12/07 06:33:53;;;;;;;6.72;1.33;;;33.30;23.10;;;;;;5069630;28;20600;-76
2020/12/07 06:36:32;;;;;;;2.00;0.90;;;33.60;23.00;;;;;;5075840;28;20250;-77
2020/12/07 06:39:03;;;;;;;7.53;1.30;;;33.90;22.80;;;;;;5074111;28;20179;-77
2020/12/07 06:41:33;;;;;;;3.08;0.93;;;33.90;22.60;;;;;;5070426;28;20186;-78
2020/12/07 06:44:02;;;;;;;6.47;0.98;;;33.10;23.00;;;;;;5070003;28;20322;-80
2020/12/07 06:47:09;;;;;;;7.13;0.95;;;33.00;23.50;;;;;;5065576;28;20262;-79
2020/12/07 06:49:41;;;;;;;3.42;0.90;;;32.50;23.90;;;;;;5075858;28;20512;-78
2020/12/07 06:52:12;;;;;;;8.13;1.10;;;32.90;23.50;;;;;;5086716;28;20206;-76
2020/12/07 06:55:06;;;;;;;5.35;1.08;;;33.00;23.70;;;;;;5095541;28;20179;-76
2020/12/07 06:57:53;;;;;;;3.33;1.17;;;32.90;23.60;;;;;;5064530;28;20219;-76
2020/12/07 07:00:23;;;;;;;3.10;1.08;;;32.90;23.70;;;;;;5080389;28;20179;-77
2020/12/07 07:02:52;;;;;;;7.95;1.10;;;33.10;23.70;;;;;;5079143;28;20176;-77
2020/12/07 07:05:26;;;;;;;8.00;1.52;;;32.90;23.70;;;;;;5073614;28;20629;-76
2020/12/07 07:07:54;;;;;;;5.28;1.15;;;32.80;23.50;;;;;;5075094;28;20179;-76
2020/12/07 07:10:22;;;;;;;5.32;1.30;;;32.40;23.90;;;;;;5071792;28;20681;-75
2020/12/07 07:12:51;;;;;;;4.95;1.50;;;31.70;24.10;;;;;;5073565;28;20186;-76
2020/12/07 07:15:18;;;;;;;2.42;0.98;;;31.40;24.10;;;;;;5075181;28;20187;-78
2020/12/07 07:17:47;;;;;;;9.77;1.40;;;30.70;23.90;;;;;;5072983;28;20176;-79
2020/12/07 07:20:16;;;;;;;3.78;0.98;;;30.60;24.60;;;;;;5075432;28;20179;-75
2020/12/07 07:22:46;;;;;;;2.87;0.90;;;30.40;24.40;;;;;;5075127;28;20190;-80
2020/12/07 07:30:28;;;;;;;3.70;1.07;;;30.20;25.60;;;;;;5075310;28;20214;-79
2020/12/07 07:32:57;;;;;;;4.87;0.93;;;29.90;25.40;;;;;;5075342;28;20184;-77
2020/12/07 07:35:29;;;;;;;7.63;1.53;;;29.70;25.80;;;;;;5075154;28;20232;-77
2020/12/07 07:37:57;;;;;;;2.40;1.00;;;29.60;25.90;;;;;;5074557;28;20183;-75
2020/12/07 07:40:27;;;;;;;4.57;0.97;;;29.50;26.20;;;;;;5074201;28;20190;-78
2020/12/07 07:42:56;;;;;;;4.40;1.27;;;29.40;26.30;;;;;;5074225;28;20182;-78
2020/12/07 07:45:30;;;;;;;5.97;1.30;;;29.40;26.40;;;;;;5074779;28;20228;-76
2020/12/07 08:08:18;;;;;;;7.00;1.40;;;28.10;27.10;;;;;;5074049;28;20190;-78
2020/12/07 08:15:30;;;;;;;4.17;1.07;;;27.70;27.20;;;;;;5073150;28;20190;-77
2020/12/07 08:17:59;;;;;;;3.47;0.97;;;27.70;27.30;;;;;;5073965;28;20211;-76
2020/12/07 08:20:38;;;;;;;2.37;0.80;;;27.70;27.60;;;;;;5073896;28;20175;-76
2020/12/07 08:23:08;;;;;;;5.20;1.33;;;27.60;27.40;;;;;;5074352;28;20209;-80
2020/12/07 08:25:50;;;;;;;2.40;0.70;;;27.50;27.40;;;;;;5072553;28;20656;-79
2020/12/07 08:28:37;;;;;;;4.87;1.37;;;27.50;27.60;;;;;;5074064;28;20249;-76
2020/12/07 08:31:22;;;;;;;3.30;1.30;;;27.50;27.80;;;;;;5073582;28;20240;-76
2020/12/07 08:34:03;;;;;;;5.23;1.17;;;27.40;27.70;;;;;;5073017;28;20512;-76
2020/12/07 08:36:34;;;;;;;6.87;1.43;;;27.40;27.50;;;;;;5068716;28;20257;-79
2020/12/07 08:39:03;;;;;;;5.43;1.17;;;27.40;27.70;;;;;;5071380;28;20175;-78
2020/12/07 08:41:32;;;;;;;2.73;1.03;;;27.30;27.70;;;;;;5072148;28;20187;-77
2020/12/07 08:44:08;;;;;;;6.17;1.20;;;27.30;27.90;;;;;;5058060;28;20205;-79
2020/12/07 08:46:37;;;;;;;3.57;0.93;;;27.20;28.10;;;;;;5063489;28;20685;-77
2020/12/07 08:49:06;;;;;;;4.00;0.90;;;27.10;28.20;;;;;;5070635;28;20186;-76
2020/12/07 08:51:36;;;;;;;7.43;1.63;;;27.10;28.30;;;;;;5072436;28;20372;-77
2020/12/07 08:54:04;;;;;;;5.27;1.50;;;27.00;28.60;;;;;;5072928;28;20490;-77
2020/12/07 08:56:31;;;;;;;5.83;1.17;;;27.00;28.60;;;;;;5070646;28;20209;-77
2020/12/07 08:58:59;;;;;;;3.50;1.03;;;26.90;28.60;;;;;;5052791;28;20180;-75
2020/12/07 09:01:26;;;;;;;3.07;1.03;;;26.90;28.90;;;;;;5053454;28;20187;-76
2020/12/07 09:03:53;;;;;;;4.63;1.17;;;26.90;28.90;;;;;;5070640;28;20194;-76
2020/12/07 09:06:21;;;;;;;8.83;1.33;;;26.80;28.90;;;;;;5076677;28;20644;-77
2020/12/07 09:08:49;;;;;;;5.60;1.33;;;26.80;29.00;;;;;;5075214;28;20228;-78
2020/12/07 09:11:19;;;;;;;3.23;1.23;;;26.70;29.10;;;;;;5073002;28;20217;-76
2020/12/07 09:13:47;;;;;;;5.53;1.63;;;26.60;29.10;;;;;;5073209;28;20217;-78
2020/12/07 09:16:15;;;;;;;6.07;1.33;;;26.60;29.20;;;;;;5071855;28;20181;-78
2020/12/07 09:18:42;;;;;;;6.70;1.40;;;26.60;29.20;;;;;;5072348;28;20538;-80
2020/12/07 09:21:10;;;;;;;4.10;1.07;;;26.50;29.50;;;;;;5073858;28;20712;-77
2020/12/07 09:23:39;;;;;;;4.73;1.10;;;26.40;28.90;;;;;;5073397;28;20222;-78
2020/12/07 09:26:07;;;;;;;4.80;1.43;;;26.30;28.90;;;;;;5071581;28;20187;-80
2020/12/07 09:28:38;;;;;;;5.10;1.20;;;26.30;28.90;;;;;;5073684;28;20237;-76
2020/12/07 09:31:06;;;;;;;7.03;1.00;;;26.30;28.80;;;;;;5071212;28;20761;-76
2020/12/07 09:33:34;;;;;;;5.13;1.00;;;26.20;29.40;;;;;;5073647;28;20171;-77
2020/12/07 09:36:03;;;;;;;6.23;1.13;;;26.20;29.00;;;;;;5071582;28;20198;-78
2020/12/07 09:38:30;;;;;;;5.93;1.20;;;26.10;28.90;;;;;;5073445;28;20634;-79
2020/12/07 09:40:58;;;;;;;4.37;1.20;;;26.10;28.70;;;;;;5072987;28;20183;-77
2020/12/07 09:43:26;;;;;;;2.23;0.90;;;26.10;28.80;;;;;;5073680;28;20236;-78
2020/12/07 09:46:00;;;;;;;5.97;1.03;;;26.00;28.90;;;;;;5073076;28;20257;-77
2020/12/07 09:48:27;;;;;;;9.03;1.40;;;25.90;28.80;;;;;;5072135;28;20225;-81
2020/12/07 09:50:54;;;;;;;3.87;1.13;;;25.90;28.90;;;;;;5074857;28;20659;-77
2020/12/07 09:53:22;;;;;;;7.40;1.40;;;25.80;29.00;;;;;;5075498;28;20646;-82
2020/12/07 09:55:50;;;;;;;5.40;1.20;;;25.80;29.60;;;;;;5074577;28;20227;-81
2020/12/07 09:58:17;;;;;;;6.17;1.20;;;25.80;29.00;;;;;;5074609;28;20233;-79
2020/12/07 10:00:44;;;;;;;4.90;1.20;;;25.70;29.20;;;;;;5073234;28;20371;-83
2020/12/07 10:03:12;;;;;;;4.57;1.10;;;25.60;29.10;;;;;;5073690;28;20633;-78
2020/12/07 10:05:39;;;;;;;4.10;1.10;;;25.60;29.20;;;;;;5074618;28;20567;-75
2020/12/07 10:08:06;;;;;;;7.93;1.17;;;25.60;29.40;;;;;;5071122;28;20334;-78
2020/12/07 10:10:34;;;;;;;5.10;1.00;;;25.50;29.40;;;;;;5074193;28;20596;-78
2020/12/07 10:13:01;;;;;;;7.10;1.20;;;25.50;29.40;;;;;;5076759;28;20168;-76
2020/12/07 10:15:28;;;;;;;5.63;1.40;;;25.50;29.40;;;;;;5076904;28;20175;-82
2020/12/07 10:17:56;;;;;;;6.10;1.43;;;25.50;29.50;;;;;;5074394;28;20207;-80
2020/12/07 10:20:23;;;;;;;3.93;1.10;;;25.40;29.70;;;;;;5059366;28;20179;-75
2020/12/07 10:22:50;;;;;;;5.97;1.73;;;25.30;29.60;;;;;;5076065;28;20266;-76
2020/12/07 10:25:18;;;;;;;5.97;1.20;;;25.30;29.80;;;;;;5075074;28;20227;-77
2020/12/07 10:27:45;;;;;;;4.20;1.20;;;25.30;29.80;;;;;;5095103;28;20193;-79
2020/12/07 10:30:12;;;;;;;8.33;1.37;;;25.30;30.00;;;;;;5064628;28;20223;-77
2020/12/07 10:32:40;;;;;;;8.50;1.67;;;25.20;29.80;;;;;;5076212;28;20175;-77
2020/12/07 10:35:10;;;;;;;5.70;1.37;;;25.10;30.00;;;;;;5076628;28;20179;-77
2020/12/07 10:37:37;;;;;;;4.37;1.23;;;25.10;30.20;;;;;;5076973;28;20168;-77
2020/12/07 10:40:04;;;;;;;8.43;1.53;;;25.00;30.20;;;;;;5076418;28;20187;-78
2020/12/07 10:42:32;;;;;;;6.80;1.60;;;25.00;30.20;;;;;;5086362;28;20178;-77
2020/12/07 10:44:59;;;;;;;3.90;1.20;;;24.90;30.20;;;;;;5075733;28;20634;-77
2020/12/07 10:47:26;;;;;;;5.70;1.80;;;24.90;30.30;;;;;;5075853;28;20246;-76
2020/12/07 10:49:54;;;;;;;5.30;0.90;;;24.80;30.60;;;;;;5075312;28;20217;-77
2020/12/07 10:52:21;;;;;;;4.60;1.30;;;24.70;30.60;;;;;;5055647;28;20180;-76
2020/12/07 10:54:49;;;;;;;5.23;1.70;;;24.70;31.30;;;;;;5064720;28;20514;-76
2020/12/07 10:57:16;;;;;;;4.90;1.00;;;24.60;31.00;;;;;;5075423;28;20233;-80
2020/12/07 10:59:44;;;;;;;2.20;1.00;;;24.50;31.00;;;;;;5075347;28;20175;-75
2020/12/07 11:02:11;;;;;;;2.63;1.10;;;24.50;30.70;;;;;;5071413;28;20679;-75
2020/12/07 11:04:38;;;;;;;5.10;1.07;;;24.50;30.80;;;;;;5089391;28;20175;-78
2020/12/07 11:07:13;;;;;;;4.83;1.40;;;24.50;31.10;;;;;;5075168;28;20625;-80
2020/12/07 11:09:40;;;;;;;6.40;1.27;;;24.50;30.90;;;;;;5073372;28;20182;-77
2020/12/07 11:12:20;;;;;;;5.93;1.60;;;24.40;31.20;;;;;;5080416;28;20192;-73
2020/12/07 11:14:47;;;;;;;5.20;1.13;;;24.40;30.90;;;;;;5084956;28;20183;-75
2020/12/07 11:17:15;;;;;;;2.30;0.93;;;24.40;31.30;;;;;;5075211;28;20175;-76
2020/12/07 11:19:43;;;;;;;7.73;1.40;;;24.30;31.40;;;;;;5075061;28;20804;-76
2020/12/07 11:22:12;;;;;;;2.93;1.20;;;24.30;31.60;;;;;;5074299;28;20198;-75
2020/12/07 11:24:39;;;;;;;6.80;1.27;;;24.20;31.60;;;;;;5075737;28;20265;-75
2020/12/07 11:27:07;;;;;;;9.27;1.10;;;24.20;31.70;;;;;;5095469;28;20174;-76
2020/12/07 11:29:38;;;;;;;9.20;1.20;;;24.10;32.00;;;;;;5095049;28;20167;-77
2020/12/07 11:32:06;;;;;;;3.83;1.07;;;24.10;31.80;;;;;;5085713;28;20195;-77
2020/12/07 11:34:33;;;;;;;3.87;1.27;;;24.00;31.90;;;;;;5074594;28;20167;-76
2020/12/07 11:37:01;;;;;;;3.13;1.20;;;24.00;32.10;;;;;;5068170;28;20207;-76
2020/12/07 11:40:36;;;;;;;3.07;1.00;;;24.00;32.40;;;;;;5062776;28;20229;-76
2020/12/07 11:42:45;;;;;;;4.57;1.00;;;23.90;32.70;;;;;;5069053;28;20317;-76
2020/12/07 11:45:12;;;;;;;4.37;1.20;;;23.80;32.70;;;;;;5077800;28;20175;-76
2020/12/07 11:47:40;;;;;;;4.43;1.30;;;23.80;33.40;;;;;;5074757;28;20178;-75
2020/12/07 11:50:07;;;;;;;4.67;1.20;;;23.70;32.70;;;;;;5063273;28;20207;-75
2020/12/07 11:52:35;;;;;;;5.27;1.20;;;23.60;32.80;;;;;;5054355;28;20230;-76
2020/12/07 11:55:02;;;;;;;4.33;0.90;;;23.70;33.10;;;;;;5088476;28;20187;-76
2020/12/07 11:57:30;;;;;;;4.47;1.30;;;23.60;32.90;;;;;;5074375;28;20671;-75
2020/12/07 11:59:57;;;;;;;4.80;1.00;;;23.50;33.10;;;;;;5073904;28;20644;-76
2020/12/07 12:02:24;;;;;;;3.03;1.10;;;23.50;33.40;;;;;;5074562;28;20179;-76
2020/12/07 12:04:52;;;;;;;2.50;0.80;;;23.50;33.30;;;;;;5074695;28;20338;-74
2020/12/07 12:07:19;;;;;;;3.67;1.20;;;23.40;33.40;;;;;;5071552;28;20179;-75
2020/12/07 12:09:47;;;;;;;4.90;1.00;;;23.40;33.70;;;;;;5083720;28;20178;-75
2020/12/07 12:12:14;;;;;;;3.73;0.97;;;23.40;33.60;;;;;;5092773;28;20190;-76
2020/12/07 12:14:41;;;;;;;4.50;1.00;;;23.30;33.70;;;;;;5090298;28;20641;-75
2020/12/07 12:17:09;;;;;;;3.57;1.10;;;23.30;33.60;;;;;;5074277;28;20617;-76
2020/12/07 12:19:36;;;;;;;3.20;0.67;;;23.20;34.00;;;;;;5087419;28;20175;-75
2020/12/07 12:22:03;;;;;;;2.67;0.87;;;23.20;33.80;;;;;;5092754;28;20754;-76
2020/12/07 12:24:31;;;;;;;4.90;1.10;;;23.20;34.20;;;;;;5091217;28;20229;-76
2020/12/07 12:26:58;;;;;;;4.33;0.93;;;23.10;34.20;;;;;;5093344;28;20269;-76
2020/12/07 12:29:26;;;;;;;2.63;0.90;;;23.10;34.40;;;;;;5081093;28;20244;-77
2020/12/07 12:31:53;;;;;;;4.00;1.00;;;23.00;34.50;;;;;;5073038;28;20551;-76
2020/12/07 12:34:21;;;;;;;3.47;0.87;;;23.00;34.80;;;;;;5073647;28;20167;-76
2020/12/07 12:36:51;;;;;;;5.00;1.03;;;22.90;34.90;;;;;;5073096;28;20178;-77
2020/12/07 12:39:20;;;;;;;3.93;1.07;;;22.90;34.90;;;;;;5073816;28;20170;-76
2020/12/07 12:41:48;;;;;;;3.40;1.10;;;22.90;35.00;;;;;;5073553;28;20163;-76
2020/12/07 12:44:15;;;;;;;3.80;1.03;;;22.90;35.30;;;;;;5071154;28;20258;-75
2020/12/07 12:46:43;;;;;;;7.10;1.03;;;22.80;35.20;;;;;;5059775;28;20175;-75
2020/12/07 12:49:10;;;;;;;4.27;1.03;;;22.80;35.50;;;;;;5093761;28;20178;-77
2020/12/07 12:51:37;;;;;;;4.37;0.93;;;22.70;35.60;;;;;;5085307;28;20227;-76
2020/12/07 12:54:05;;;;;;;4.27;1.00;;;22.70;36.20;;;;;;5072257;28;20183;-76
2020/12/07 12:56:32;;;;;;;3.93;1.10;;;22.70;36.30;;;;;;5074475;28;20172;-76
2020/12/07 12:58:59;;;;;;;7.13;1.20;;;22.70;35.90;;;;;;5093477;28;20163;-76
2020/12/07 13:01:27;;;;;;;3.07;0.90;;;22.70;36.40;;;;;;5093601;28;20178;-75
2020/12/07 13:03:55;;;;;;;2.40;0.97;;;22.60;35.90;;;;;;5092260;28;20182;-76
2020/12/07 13:06:22;;;;;;;3.93;0.93;;;22.70;36.20;;;;;;5093241;28;20521;-80
2020/12/07 13:08:50;;;;;;;4.90;1.10;;;22.70;36.30;;;;;;5073710;28;20596;-78
2020/12/07 13:11:17;;;;;;;6.50;1.53;;;22.70;35.90;;;;;;5073751;28;20213;-76
2020/12/07 13:13:44;;;;;;;5.97;1.00;;;22.70;36.20;;;;;;5086644;28;20178;-77
2020/12/07 13:16:15;;;;;;;4.53;0.90;;;22.40;38.50;;;;;;5093848;28;20174;-76
2020/12/07 13:18:47;;;;;;;4.97;0.70;;;21.70;41.10;;;;;;5072823;28;20175;-75
2020/12/07 13:21:32;;;;;;;12.40;1.00;;;21.30;42.50;;;;;;5073423;28;20706;-77
2020/12/07 13:24:14;;;;;;;4.90;0.70;;;21.00;43.50;;;;;;5071112;28;20708;-78